createdAt,value
2019-03-06T00:00:23.354Z,33.72
2019-03-06T00:01:27.222Z,38.55
2019-03-06T00:02:29.491Z,34.25
2019-03-06T00:03:31.518Z,33.98
2019-03-06T00:04:33.900Z,33.86
2019-03-06T00:05:36.511Z,35.34
2019-03-06T00:06:38.816Z,34.48
2019-03-06T00:07:40.562Z,32.90
2019-03-06T00:08:42.898Z,40.86
2019-03-06T00:09:44.826Z,35.82
2019-03-06T00:10:47.633Z,34.13
2019-03-06T00:11:50.034Z,33.86
2019-03-06T00:12:52.045Z,33.61
2019-03-06T00:13:54.008Z,33.88
2019-03-06T00:14:56.011Z,33.86
2019-03-06T00:15:58.061Z,34.75
2019-03-06T00:17:00.149Z,35.09
2019-03-06T00:18:02.964Z,35.04
2019-03-06T00:19:06.182Z,34.82
2019-03-06T00:20:08.622Z,35.86
2019-03-06T00:21:10.871Z,34.78
2019-03-06T00:22:13.087Z,37.12
2019-03-06T00:23:15.497Z,34.57
2019-03-06T00:24:17.567Z,35.92
2019-03-06T00:25:20.634Z,34.71
2019-03-06T00:26:23.610Z,37.23
2019-03-06T00:27:25.426Z,35.05
2019-03-06T00:28:27.963Z,34.29
2019-03-06T00:29:29.945Z,35.10
2019-03-06T00:30:32.994Z,35.04
2019-03-06T00:31:34.847Z,34.40
2019-03-06T00:32:36.951Z,35.72
2019-03-06T00:33:39.400Z,34.28
2019-03-06T00:34:42.735Z,35.76
2019-03-06T00:35:46.856Z,34.04
2019-03-06T00:36:48.861Z,34.15
2019-03-06T00:37:52.942Z,34.02
2019-03-06T00:38:56.264Z,37.67
2019-03-06T00:40:00.356Z,34.09
2019-03-06T00:41:24.577Z,34.28
2019-03-06T00:42:26.560Z,35.69
2019-03-06T00:43:28.510Z,35.78
2019-03-06T00:44:30.752Z,34.16
2019-03-06T00:45:32.756Z,35.01
2019-03-06T00:46:34.814Z,35.68
2019-03-06T00:47:36.915Z,35.57
2019-03-06T00:48:38.640Z,38.81
2019-03-06T00:49:40.456Z,40.79
2019-03-06T00:50:42.568Z,34.22
2019-03-06T00:51:44.861Z,34.58
2019-03-06T00:52:47.139Z,38.11
2019-03-06T00:53:49.613Z,35.34
2019-03-06T00:54:51.552Z,37.99
2019-03-06T00:55:53.670Z,34.44
2019-03-06T00:56:56.050Z,34.49
2019-03-06T00:57:57.775Z,34.15
2019-03-06T00:58:59.799Z,38.23
2019-03-06T01:00:04.911Z,35.08
2019-03-06T01:01:08.650Z,34.36
2019-03-06T01:02:13.027Z,36.88
2019-03-06T01:03:15.453Z,34.44
2019-03-06T01:04:17.339Z,34.22
2019-03-06T01:05:19.985Z,34.45
2019-03-06T01:06:22.144Z,35.09
2019-03-06T01:07:24.468Z,34.41
2019-03-06T01:08:28.684Z,34.25
2019-03-06T01:09:30.555Z,34.42
2019-03-06T01:10:32.778Z,34.16
2019-03-06T01:11:34.679Z,37.03
2019-03-06T01:12:36.692Z,34.62
2019-03-06T01:13:38.962Z,37.04
2019-03-06T01:14:42.040Z,34.53
2019-03-06T01:15:44.240Z,34.45
2019-03-06T01:16:46.452Z,34.70
2019-03-06T01:17:48.563Z,34.65
2019-03-06T01:18:50.932Z,34.77
2019-03-06T01:19:52.994Z,35.19
2019-03-06T01:20:57.437Z,34.95
2019-03-06T01:22:00.176Z,34.66
2019-03-06T01:23:03.192Z,35.20
2019-03-06T01:24:05.681Z,37.29
2019-03-06T01:25:14.438Z,39.30
2019-03-06T01:26:16.832Z,35.28
2019-03-06T01:27:18.655Z,35.49
2019-03-06T01:28:20.773Z,34.74
2019-03-06T01:29:22.994Z,35.76
2019-03-06T01:30:26.955Z,35.46
2019-03-06T01:31:28.796Z,35.34
2019-03-06T01:32:30.791Z,36.83
2019-03-06T01:33:37.442Z,35.34
2019-03-06T01:34:44.330Z,35.01
2019-03-06T01:35:51.248Z,35.23
2019-03-06T01:37:11.912Z,34.85
2019-03-06T01:38:17.132Z,34.63
2019-03-06T01:39:22.365Z,35.41
2019-03-06T01:40:42.904Z,35.16
2019-03-06T01:41:49.865Z,36.72
2019-03-06T01:42:53.771Z,34.34
2019-03-06T01:43:55.859Z,34.51
2019-03-06T01:44:57.939Z,34.40
2019-03-06T01:46:00.547Z,35.08
2019-03-06T01:47:03.159Z,36.93
2019-03-06T01:48:05.426Z,35.44
2019-03-06T01:49:07.315Z,34.76
2019-03-06T01:50:10.613Z,34.80
2019-03-06T01:51:12.661Z,35.12
2019-03-06T01:52:14.883Z,34.84
2019-03-06T01:53:18.431Z,35.34
2019-03-06T01:54:22.545Z,35.20
2019-03-06T01:55:24.575Z,35.01
2019-03-06T01:56:26.452Z,35.12
2019-03-06T01:57:28.290Z,35.29
2019-03-06T01:58:30.160Z,38.21
2019-03-06T01:59:32.313Z,37.80
2019-03-06T02:00:35.275Z,35.28
2019-03-06T02:01:37.516Z,35.23
2019-03-06T02:02:40.238Z,35.15
2019-03-06T02:03:44.092Z,35.14
2019-03-06T02:04:46.412Z,35.89
2019-03-06T02:05:49.374Z,35.78
2019-03-06T02:06:51.745Z,35.01
2019-03-06T02:07:54.394Z,40.76
2019-03-06T02:08:58.322Z,36.53
2019-03-06T02:10:00.846Z,35.34
2019-03-06T02:11:04.116Z,39.20
2019-03-06T02:12:07.129Z,35.89
2019-03-06T02:13:10.134Z,35.41
2019-03-06T02:14:12.930Z,35.47
2019-03-06T02:15:16.987Z,35.07
2019-03-06T02:16:19.410Z,34.76
2019-03-06T02:17:21.549Z,34.97
2019-03-06T02:18:24.037Z,34.80
2019-03-06T02:19:26.233Z,36.41
2019-03-06T02:20:28.391Z,35.12
2019-03-06T02:21:30.528Z,35.03
2019-03-06T02:22:32.517Z,34.94
2019-03-06T02:23:34.605Z,36.71
2019-03-06T02:24:36.802Z,35.14
2019-03-06T02:25:38.736Z,35.32
2019-03-06T02:26:40.837Z,35.91
2019-03-06T02:27:43.036Z,34.59
2019-03-06T02:28:45.001Z,34.87
2019-03-06T02:29:47.227Z,34.77
2019-03-06T02:30:49.539Z,34.67
2019-03-06T02:31:51.749Z,34.32
2019-03-06T02:32:54.099Z,34.93
2019-03-06T02:33:55.840Z,35.69
2019-03-06T02:34:58.252Z,35.72
2019-03-06T02:36:00.292Z,35.33
2019-03-06T02:37:02.583Z,36.12
2019-03-06T02:38:04.598Z,37.55
2019-03-06T02:39:06.715Z,35.04
2019-03-06T02:40:10.334Z,39.26
2019-03-06T02:41:12.333Z,35.00
2019-03-06T02:42:14.457Z,34.75
2019-03-06T02:43:16.726Z,34.79
2019-03-06T02:44:18.858Z,34.38
2019-03-06T02:45:21.455Z,34.56
2019-03-06T02:46:23.407Z,35.07
2019-03-06T02:47:25.435Z,35.01
2019-03-06T02:48:27.679Z,35.08
2019-03-06T02:49:29.897Z,34.73
2019-03-06T02:50:31.822Z,34.68
2019-03-06T02:51:33.741Z,35.71
2019-03-06T02:52:35.777Z,35.08
2019-03-06T02:53:37.988Z,35.97
2019-03-06T02:54:40.390Z,34.72
2019-03-06T02:55:42.495Z,35.08
2019-03-06T02:56:44.552Z,34.84
2019-03-06T02:57:52.079Z,34.40
2019-03-06T02:58:58.323Z,35.39
2019-03-06T03:00:02.416Z,36.74
2019-03-06T03:01:20.319Z,35.79
2019-03-06T03:02:39.298Z,36.43
2019-03-06T03:03:59.757Z,35.19
2019-03-06T03:05:06.711Z,35.28
2019-03-06T03:06:13.738Z,35.42
2019-03-06T03:07:15.879Z,35.45
2019-03-06T03:08:17.934Z,34.08
2019-03-06T03:09:20.308Z,38.28
2019-03-06T03:10:22.645Z,37.33
2019-03-06T03:11:24.843Z,35.19
2019-03-06T03:12:28.073Z,35.11
2019-03-06T03:13:30.337Z,34.76
2019-03-06T03:14:32.613Z,39.23
2019-03-06T03:15:34.986Z,35.21
2019-03-06T03:16:37.301Z,35.02
2019-03-06T03:17:39.369Z,35.09
2019-03-06T03:18:41.409Z,34.69
2019-03-06T03:19:43.684Z,35.07
2019-03-06T03:20:45.915Z,34.52
2019-03-06T03:21:47.978Z,34.96
2019-03-06T03:22:50.166Z,35.44
2019-03-06T03:23:52.117Z,36.91
2019-03-06T03:24:54.167Z,35.01
2019-03-06T03:25:56.061Z,35.56
2019-03-06T03:26:58.058Z,35.05
2019-03-06T03:28:00.085Z,36.58
2019-03-06T03:29:02.195Z,34.73
2019-03-06T03:30:09.974Z,34.77
2019-03-06T03:31:11.851Z,34.03
2019-03-06T03:32:14.105Z,35.48
2019-03-06T03:33:16.263Z,35.04
2019-03-06T03:34:18.320Z,35.89
2019-03-06T03:35:21.262Z,35.05
2019-03-06T03:36:23.177Z,35.08
2019-03-06T03:37:25.450Z,34.97
2019-03-06T03:38:27.598Z,34.81
2019-03-06T03:39:29.909Z,37.38
2019-03-06T03:40:31.734Z,34.84
2019-03-06T03:41:33.785Z,34.52
2019-03-06T03:42:35.528Z,34.58
2019-03-06T03:43:37.664Z,36.64
2019-03-06T03:44:39.967Z,34.09
2019-03-06T03:45:41.853Z,34.55
2019-03-06T03:46:44.405Z,34.70
2019-03-06T03:47:46.396Z,34.52
2019-03-06T03:48:48.220Z,34.72
2019-03-06T03:49:50.334Z,34.94
2019-03-06T03:50:52.609Z,35.16
2019-03-06T03:51:54.550Z,34.55
2019-03-06T03:52:56.885Z,34.92
2019-03-06T03:54:00.115Z,34.99
2019-03-06T03:55:08.840Z,35.00
2019-03-06T03:56:11.039Z,34.71
2019-03-06T03:57:14.432Z,34.86
2019-03-06T03:58:16.395Z,35.02
2019-03-06T03:59:20.130Z,35.12
2019-03-06T04:00:22.410Z,35.22
2019-03-06T04:01:25.036Z,35.03
2019-03-06T04:02:27.389Z,35.15
2019-03-06T04:03:29.185Z,34.97
2019-03-06T04:04:31.298Z,34.93
2019-03-06T04:05:34.225Z,34.67
2019-03-06T04:06:36.118Z,34.98
2019-03-06T04:07:38.255Z,34.98
2019-03-06T04:08:40.733Z,34.79
2019-03-06T04:09:42.435Z,35.94
2019-03-06T04:10:44.807Z,34.92
2019-03-06T04:11:46.889Z,36.24
2019-03-06T04:12:49.346Z,34.90
2019-03-06T04:13:51.043Z,35.76
2019-03-06T04:14:53.088Z,35.42
2019-03-06T04:15:55.111Z,35.04
2019-03-06T04:16:57.026Z,35.29
2019-03-06T04:17:59.189Z,34.88
2019-03-06T04:19:00.977Z,34.94
2019-03-06T04:20:09.396Z,34.72
2019-03-06T04:21:11.458Z,35.72
2019-03-06T04:22:13.192Z,34.80
2019-03-06T04:23:17.070Z,34.65
2019-03-06T04:24:19.170Z,34.80
2019-03-06T04:25:21.010Z,36.41
2019-03-06T04:26:23.369Z,34.98
2019-03-06T04:27:25.235Z,34.58
2019-03-06T04:28:28.111Z,34.84
2019-03-06T04:29:30.335Z,34.80
2019-03-06T04:30:32.468Z,34.98
2019-03-06T04:31:34.587Z,34.91
2019-03-06T04:32:37.565Z,36.54
2019-03-06T04:33:40.165Z,34.91
2019-03-06T04:34:42.094Z,34.60
2019-03-06T04:35:44.461Z,34.61
2019-03-06T04:36:46.339Z,34.97
2019-03-06T04:37:48.613Z,35.50
2019-03-06T04:38:50.815Z,34.52
2019-03-06T04:39:52.689Z,34.93
2019-03-06T04:40:54.857Z,34.81
2019-03-06T04:41:57.133Z,34.98
2019-03-06T04:42:58.851Z,34.76
2019-03-06T04:44:00.751Z,34.70
2019-03-06T04:45:07.101Z,34.88
2019-03-06T04:46:09.140Z,34.97
2019-03-06T04:47:11.226Z,35.00
2019-03-06T04:48:13.320Z,35.08
2019-03-06T04:49:15.119Z,35.01
2019-03-06T04:50:17.314Z,34.96
2019-03-06T04:51:19.262Z,35.16
2019-03-06T04:52:21.576Z,34.95
2019-03-06T04:53:23.857Z,34.99
2019-03-06T04:54:25.570Z,35.72
2019-03-06T04:55:27.586Z,35.01
2019-03-06T04:56:29.566Z,34.97
2019-03-06T04:57:31.713Z,34.83
2019-03-06T04:58:33.398Z,36.28
2019-03-06T04:59:35.528Z,34.94
2019-03-06T05:00:37.692Z,34.46
2019-03-06T05:01:40.110Z,34.39
2019-03-06T05:02:42.140Z,34.67
2019-03-06T05:03:44.034Z,34.55
2019-03-06T05:04:46.246Z,34.57
2019-03-06T05:05:48.352Z,34.74
2019-03-06T05:06:50.456Z,34.78
2019-03-06T05:07:52.548Z,34.19
2019-03-06T05:08:54.878Z,34.27
2019-03-06T05:09:56.546Z,34.63
2019-03-06T05:10:58.770Z,34.42
2019-03-06T05:12:01.484Z,34.23
2019-03-06T05:13:04.798Z,34.55
2019-03-06T05:14:06.918Z,35.63
2019-03-06T05:15:12.185Z,34.46
2019-03-06T05:16:13.898Z,34.27
2019-03-06T05:17:21.148Z,34.09
2019-03-06T05:18:30.882Z,34.42
2019-03-06T05:19:33.244Z,34.35
2019-03-06T05:20:35.426Z,34.67
2019-03-06T05:21:37.397Z,34.65
2019-03-06T05:22:39.377Z,34.76
2019-03-06T05:23:41.556Z,34.84
2019-03-06T05:24:43.243Z,34.52
2019-03-06T05:25:45.203Z,34.86
2019-03-06T05:26:47.186Z,34.58
2019-03-06T05:27:48.883Z,34.88
2019-03-06T05:28:51.091Z,35.26
2019-03-06T05:29:53.227Z,34.93
2019-03-06T05:30:55.235Z,35.09
2019-03-06T05:32:23.169Z,35.29
2019-03-06T05:33:25.230Z,35.14
2019-03-06T05:34:27.490Z,35.32
2019-03-06T05:35:50.421Z,35.74
2019-03-06T05:37:26.307Z,35.82
2019-03-06T05:39:05.420Z,35.71
2019-03-06T05:40:09.507Z,35.25
2019-03-06T05:41:11.423Z,35.61
2019-03-06T05:42:13.349Z,36.28
2019-03-06T05:43:15.348Z,36.09
2019-03-06T05:44:17.323Z,35.82
2019-03-06T05:45:19.265Z,37.17
2019-03-06T05:46:21.090Z,35.85
2019-03-06T05:47:22.983Z,35.54
2019-03-06T05:48:24.770Z,35.83
2019-03-06T05:49:28.532Z,35.99
2019-03-06T05:50:32.190Z,36.13
2019-03-06T05:51:34.179Z,36.08
2019-03-06T05:52:36.172Z,35.76
2019-03-06T05:53:40.189Z,36.02
2019-03-06T05:54:42.078Z,36.05
2019-03-06T05:55:44.190Z,36.31
2019-03-06T05:56:48.468Z,35.81
2019-03-06T05:57:50.815Z,36.34
2019-03-06T05:58:55.270Z,36.42
2019-03-06T05:59:57.192Z,36.30
2019-03-06T06:00:59.010Z,36.26
2019-03-06T06:02:01.070Z,35.82
2019-03-06T06:03:03.511Z,37.17
2019-03-06T06:04:05.156Z,36.08
2019-03-06T06:05:12.511Z,34.80
2019-03-06T06:06:14.752Z,36.12
2019-03-06T06:07:16.650Z,35.91
2019-03-06T06:08:18.594Z,37.03
2019-03-06T06:09:21.417Z,35.62
2019-03-06T06:10:23.584Z,38.39
2019-03-06T06:11:25.774Z,36.33
2019-03-06T06:12:27.713Z,36.33
2019-03-06T06:13:30.999Z,35.55
2019-03-06T06:14:33.192Z,37.46
2019-03-06T06:15:35.197Z,36.04
2019-03-06T06:16:37.405Z,36.27
2019-03-06T06:17:41.565Z,35.74
2019-03-06T06:18:43.892Z,35.68
2019-03-06T06:19:46.187Z,36.18
2019-03-06T06:20:49.981Z,37.86
2019-03-06T06:21:59.539Z,40.66
2019-03-06T06:23:15.558Z,36.21
2019-03-06T06:24:17.671Z,36.44
2019-03-06T06:25:19.876Z,36.26
2019-03-06T06:26:22.199Z,36.57
2019-03-06T06:27:23.889Z,36.09
2019-03-06T06:28:27.614Z,35.60
2019-03-06T06:29:29.825Z,36.26
2019-03-06T06:30:33.271Z,36.23
2019-03-06T06:31:35.282Z,35.57
2019-03-06T06:32:37.315Z,35.67
2019-03-06T06:33:39.675Z,35.66
2019-03-06T06:34:41.611Z,36.02
2019-03-06T06:35:43.911Z,35.76
2019-03-06T06:36:45.961Z,35.97
2019-03-06T06:37:48.032Z,36.17
2019-03-06T06:38:50.029Z,35.69
2019-03-06T06:39:51.911Z,35.97
2019-03-06T06:40:53.981Z,35.74
2019-03-06T06:41:56.089Z,35.64
2019-03-06T06:42:58.308Z,35.60
2019-03-06T06:44:00.318Z,35.06
2019-03-06T06:45:08.044Z,37.43
2019-03-06T06:46:09.781Z,37.50
2019-03-06T06:47:12.075Z,35.59
2019-03-06T06:48:17.237Z,35.74
2019-03-06T06:49:19.405Z,35.17
2019-03-06T06:50:21.395Z,35.16
2019-03-06T06:51:49.821Z,35.33
2019-03-06T06:53:34.767Z,35.83
2019-03-06T06:55:09.599Z,35.66
2019-03-06T06:56:23.125Z,35.25
2019-03-06T06:57:59.200Z,35.40
2019-03-06T06:59:07.108Z,35.11
2019-03-06T07:00:25.466Z,35.20
2019-03-06T07:01:46.531Z,35.36
2019-03-06T07:03:17.015Z,35.50
2019-03-06T07:04:49.321Z,36.04
2019-03-06T07:05:54.670Z,36.65
2019-03-06T07:07:14.780Z,35.93
2019-03-06T07:08:37.024Z,35.89
2019-03-06T07:10:01.072Z,35.79
2019-03-06T07:11:05.205Z,35.60
2019-03-06T07:12:11.888Z,35.86
2019-03-06T07:13:16.389Z,35.61
2019-03-06T07:14:23.071Z,35.40
2019-03-06T07:15:31.063Z,35.81
2019-03-06T07:16:34.920Z,35.54
2019-03-06T07:17:38.881Z,35.36
2019-03-06T07:18:45.779Z,35.57
2019-03-06T07:19:49.605Z,35.73
2019-03-06T07:20:52.580Z,35.79
2019-03-06T07:21:56.412Z,35.76
2019-03-06T07:23:12.732Z,35.31
2019-03-06T07:24:19.611Z,35.08
2019-03-06T07:25:23.551Z,35.83
2019-03-06T07:26:25.673Z,35.48
2019-03-06T07:27:41.796Z,35.40
2019-03-06T07:28:45.830Z,35.05
2019-03-06T07:29:49.753Z,35.03
2019-03-06T07:30:54.258Z,35.87
2019-03-06T07:31:56.557Z,35.53
2019-03-06T07:33:15.686Z,35.64
2019-03-06T07:34:23.957Z,35.72
2019-03-06T07:35:59.252Z,35.61
2019-03-06T07:37:12.130Z,37.26
2019-03-06T07:38:14.278Z,35.48
2019-03-06T07:39:20.300Z,35.69
2019-03-06T07:40:23.174Z,35.24
2019-03-06T07:41:43.738Z,35.37
2019-03-06T07:42:47.386Z,34.86
2019-03-06T07:43:52.362Z,35.17
2019-03-06T07:45:39.047Z,35.28
2019-03-06T07:46:42.946Z,34.96
2019-03-06T07:47:52.959Z,35.79
2019-03-06T07:49:14.594Z,35.69
2019-03-06T07:50:20.873Z,35.06
2019-03-06T07:51:24.204Z,35.55
2019-03-06T07:52:29.935Z,35.64
2019-03-06T07:53:50.880Z,34.89
2019-03-06T07:55:13.028Z,35.16
2019-03-06T07:56:17.014Z,34.87
2019-03-06T07:57:19.088Z,34.88
2019-03-06T07:58:51.350Z,34.85
2019-03-06T07:59:53.598Z,34.90
2019-03-06T08:00:55.750Z,35.05
2019-03-06T08:02:05.978Z,35.40
2019-03-06T08:03:08.256Z,35.34
2019-03-06T08:04:12.960Z,35.35
2019-03-06T08:05:15.198Z,35.39
2019-03-06T08:06:17.149Z,34.89
2019-03-06T08:07:19.159Z,34.77
2019-03-06T08:08:21.347Z,34.95
2019-03-06T08:09:23.527Z,35.01
2019-03-06T08:10:27.277Z,35.65
2019-03-06T08:11:31.213Z,35.44
2019-03-06T08:12:35.059Z,35.78
2019-03-06T08:13:39.196Z,35.83
2019-03-06T08:14:43.427Z,36.49
2019-03-06T08:15:50.332Z,36.48
2019-03-06T08:16:54.293Z,36.69
2019-03-06T08:17:59.582Z,36.01
2019-03-06T08:19:15.173Z,35.30
2019-03-06T08:20:22.053Z,35.16
2019-03-06T08:21:32.959Z,35.73
2019-03-06T08:22:35.103Z,36.12
2019-03-06T08:23:38.943Z,36.31
2019-03-06T08:24:42.909Z,35.96
2019-03-06T08:25:46.483Z,35.67
2019-03-06T08:26:48.638Z,35.66
2019-03-06T08:27:50.630Z,36.04
2019-03-06T08:28:52.836Z,35.88
2019-03-06T08:29:54.808Z,36.01
2019-03-06T08:30:58.589Z,35.78
2019-03-06T08:32:02.429Z,35.69
2019-03-06T08:33:05.025Z,35.68
2019-03-06T08:34:06.926Z,36.45
2019-03-06T08:35:11.320Z,36.35
2019-03-06T08:36:13.264Z,36.38
2019-03-06T08:37:15.251Z,35.99
2019-03-06T08:38:17.805Z,36.13
2019-03-06T08:39:20.929Z,35.97
2019-03-06T08:40:22.871Z,35.83
2019-03-06T08:41:26.952Z,35.29
2019-03-06T08:42:29.303Z,36.05
2019-03-06T08:43:32.568Z,37.59
2019-03-06T08:44:35.260Z,35.27
2019-03-06T08:45:43.296Z,34.63
2019-03-06T08:46:48.413Z,34.63
2019-03-06T08:47:58.274Z,34.95
2019-03-06T08:49:09.537Z,35.12
2019-03-06T08:50:13.954Z,35.01
2019-03-06T08:51:34.787Z,34.97
2019-03-06T08:52:39.829Z,34.86
2019-03-06T08:53:43.743Z,34.92
2019-03-06T08:54:45.563Z,34.85
2019-03-06T08:55:49.643Z,34.79
2019-03-06T08:56:57.612Z,34.56
2019-03-06T08:58:13.441Z,34.49
2019-03-06T08:59:18.702Z,34.16
2019-03-06T09:00:40.059Z,34.19
2019-03-06T09:01:44.049Z,34.07
2019-03-06T09:03:10.667Z,34.09
2019-03-06T09:04:32.109Z,34.09
2019-03-06T09:05:48.097Z,33.94
2019-03-06T09:06:53.433Z,33.96
2019-03-06T09:08:01.561Z,33.93
2019-03-06T09:09:23.283Z,34.02
2019-03-06T09:10:28.611Z,34.12
2019-03-06T09:11:33.301Z,33.86
2019-03-06T09:12:37.326Z,33.61
2019-03-06T09:13:59.120Z,33.70
2019-03-06T09:15:02.945Z,33.70
2019-03-06T09:16:10.004Z,33.29
2019-03-06T09:17:13.989Z,33.47
2019-03-06T09:18:16.150Z,33.66
2019-03-06T09:19:28.947Z,33.27
2019-03-06T09:20:49.881Z,33.69
2019-03-06T09:22:10.014Z,32.81
2019-03-06T09:23:22.608Z,33.12
2019-03-06T09:24:21.633Z,32.96
2019-03-06T09:25:31.245Z,32.71
2019-03-06T09:26:35.269Z,33.16
2019-03-06T09:27:42.010Z,33.40
2019-03-06T09:29:01.047Z,33.47
2019-03-06T09:30:02.106Z,33.32
2019-03-06T09:31:24.109Z,33.12
2019-03-06T09:32:46.252Z,32.70
2019-03-06T09:34:03.660Z,32.04
2019-03-06T09:35:17.778Z,34.15
2019-03-06T09:36:25.325Z,32.54
2019-03-06T09:37:47.112Z,31.69
2019-03-06T09:38:57.030Z,31.47
2019-03-06T09:40:03.715Z,32.23
2019-03-06T09:41:10.672Z,32.09
2019-03-06T09:42:31.026Z,32.37
2019-03-06T09:43:35.532Z,32.29
2019-03-06T09:44:57.177Z,31.72
2019-03-06T09:46:01.105Z,31.86
2019-03-06T09:47:04.080Z,31.81
2019-03-06T09:48:14.219Z,31.13
2019-03-06T09:49:21.051Z,30.62
2019-03-06T09:50:28.002Z,30.97
2019-03-06T09:51:29.964Z,31.21
2019-03-06T09:52:36.815Z,30.52
2019-03-06T09:53:43.521Z,30.20
2019-03-06T09:54:50.102Z,30.40
2019-03-06T09:55:57.080Z,30.58
2019-03-06T09:57:17.189Z,30.92
2019-03-06T09:58:21.005Z,30.38
2019-03-06T09:59:34.270Z,29.70
2019-03-06T10:00:36.142Z,29.52
2019-03-06T10:01:42.901Z,29.19
2019-03-06T10:02:52.274Z,29.46
2019-03-06T10:03:54.383Z,29.57
2019-03-06T10:05:05.082Z,30.42
2019-03-06T10:06:12.272Z,30.77
2019-03-06T10:07:20.038Z,30.13
2019-03-06T10:08:23.771Z,30.29
2019-03-06T10:09:36.535Z,30.62
2019-03-06T10:10:50.464Z,31.33
2019-03-06T10:12:07.170Z,33.14
2019-03-06T10:13:10.895Z,30.37
2019-03-06T10:14:12.767Z,30.43
2019-03-06T10:15:20.678Z,29.87
2019-03-06T10:16:36.950Z,29.61
2019-03-06T10:17:47.234Z,29.46
2019-03-06T10:18:51.033Z,29.98
2019-03-06T10:19:54.952Z,30.40
2019-03-06T10:20:57.025Z,30.21
2019-03-06T10:21:59.271Z,30.73
2019-03-06T10:23:01.468Z,33.15
2019-03-06T10:24:03.881Z,31.16
2019-03-06T10:25:07.379Z,30.88
2019-03-06T10:26:09.648Z,30.89
2019-03-06T10:27:13.742Z,30.37
2019-03-06T10:28:16.034Z,30.13
2019-03-06T10:29:18.424Z,29.95
2019-03-06T10:30:20.415Z,30.01
2019-03-06T10:31:22.779Z,29.27
2019-03-06T10:32:24.951Z,30.13
2019-03-06T10:33:27.109Z,31.43
2019-03-06T10:34:29.119Z,29.79
2019-03-06T10:35:33.042Z,29.39
2019-03-06T10:36:35.400Z,30.25
2019-03-06T10:37:37.587Z,29.82
2019-03-06T10:38:39.901Z,29.13
2019-03-06T10:39:42.175Z,28.88
2019-03-06T10:40:44.055Z,31.73
2019-03-06T10:41:46.472Z,29.37
2019-03-06T10:42:48.638Z,28.76
2019-03-06T10:43:50.605Z,31.34
2019-03-06T10:44:52.810Z,35.13
2019-03-06T10:45:54.917Z,35.24
2019-03-06T10:46:57.019Z,29.67
2019-03-06T10:48:00.837Z,32.97
2019-03-06T10:49:03.490Z,35.28
2019-03-06T10:50:11.041Z,34.92
2019-03-06T10:51:13.047Z,34.60
2019-03-06T10:52:15.181Z,32.71
2019-03-06T10:53:17.567Z,33.34
2019-03-06T10:54:19.399Z,34.41
2019-03-06T10:55:21.606Z,34.43
2019-03-06T10:56:24.197Z,35.19
2019-03-06T10:57:26.276Z,35.24
2019-03-06T10:58:28.779Z,34.88
2019-03-06T10:59:30.773Z,32.40
2019-03-06T11:00:35.768Z,29.30
2019-03-06T11:01:38.151Z,28.40
2019-03-06T11:02:40.639Z,28.95
2019-03-06T11:03:44.769Z,29.50
2019-03-06T11:04:48.911Z,34.48
2019-03-06T11:05:51.304Z,34.67
2019-03-06T11:06:53.723Z,31.01
2019-03-06T11:07:57.646Z,30.31
2019-03-06T11:08:59.902Z,33.76
2019-03-06T11:10:03.369Z,34.20
2019-03-06T11:11:06.914Z,34.43
2019-03-06T11:12:09.673Z,34.49
2019-03-06T11:13:12.075Z,34.16
2019-03-06T11:14:14.658Z,33.36
2019-03-06T11:15:19.497Z,33.75
2019-03-06T11:16:21.978Z,33.41
2019-03-06T11:17:24.374Z,29.64
2019-03-06T11:18:26.670Z,33.75
2019-03-06T11:19:28.593Z,31.64
2019-03-06T11:20:33.326Z,32.74
2019-03-06T11:21:36.199Z,29.38
2019-03-06T11:22:38.508Z,28.35
2019-03-06T11:23:40.880Z,28.61
2019-03-06T11:24:43.212Z,27.68
2019-03-06T11:25:45.513Z,27.29
2019-03-06T11:26:47.972Z,27.79
2019-03-06T11:27:49.751Z,30.39
2019-03-06T11:28:53.325Z,29.08
2019-03-06T11:29:55.714Z,27.47
2019-03-06T11:30:59.117Z,26.81
2019-03-06T11:32:01.639Z,26.87
2019-03-06T11:33:08.014Z,26.69
2019-03-06T11:34:10.635Z,26.39
2019-03-06T11:35:17.429Z,27.20
2019-03-06T11:36:22.647Z,27.10
2019-03-06T11:37:25.266Z,27.00
2019-03-06T11:38:27.928Z,27.50
2019-03-06T11:39:30.310Z,27.95
2019-03-06T11:40:33.691Z,27.92
2019-03-06T11:41:36.814Z,30.01
2019-03-06T11:42:38.817Z,29.03
2019-03-06T11:43:41.289Z,27.62
2019-03-06T11:44:43.615Z,27.15
2019-03-06T11:45:46.166Z,27.04
2019-03-06T11:46:49.212Z,26.85
2019-03-06T11:47:51.298Z,27.82
2019-03-06T11:48:53.848Z,26.53
2019-03-06T11:49:55.942Z,26.85
2019-03-06T11:50:58.334Z,27.39
2019-03-06T11:52:00.490Z,26.95
2019-03-06T11:53:03.704Z,27.08
2019-03-06T11:54:06.589Z,27.02
2019-03-06T11:55:11.564Z,27.07
2019-03-06T11:56:13.760Z,27.06
2019-03-06T11:57:17.192Z,27.12
2019-03-06T11:58:19.741Z,27.18
2019-03-06T11:59:23.654Z,27.61
2019-03-06T12:00:33.570Z,29.09
2019-03-06T12:01:35.969Z,28.19
2019-03-06T12:02:38.298Z,27.59
2019-03-06T12:03:40.594Z,27.31
2019-03-06T12:04:43.034Z,27.09
2019-03-06T12:05:45.598Z,27.26
2019-03-06T12:06:47.290Z,27.58
2019-03-06T12:07:49.797Z,27.18
2019-03-06T12:08:52.249Z,27.10
2019-03-06T12:09:54.526Z,27.47
2019-03-06T12:10:58.523Z,27.66
2019-03-06T12:12:02.146Z,28.08
2019-03-06T12:13:08.772Z,28.07
2019-03-06T12:14:10.918Z,28.17
2019-03-06T12:15:14.097Z,27.78
2019-03-06T12:16:17.917Z,26.92
2019-03-06T12:17:20.234Z,26.74
2019-03-06T12:18:23.197Z,26.99
2019-03-06T12:19:25.703Z,27.45
2019-03-06T12:20:28.119Z,27.97
2019-03-06T12:21:29.997Z,29.00
2019-03-06T12:22:32.601Z,27.91
2019-03-06T12:23:34.671Z,29.26
2019-03-06T12:24:36.393Z,33.71
2019-03-06T12:25:39.717Z,34.45
2019-03-06T12:26:41.922Z,33.40
2019-03-06T12:27:44.281Z,34.26
2019-03-06T12:28:46.631Z,34.28
2019-03-06T12:29:48.873Z,34.13
2019-03-06T12:30:50.973Z,33.96
2019-03-06T12:31:53.289Z,33.73
2019-03-06T12:32:56.483Z,33.63
2019-03-06T12:33:58.501Z,33.53
2019-03-06T12:35:00.461Z,33.43
2019-03-06T12:36:03.341Z,33.24
2019-03-06T12:37:06.100Z,28.92
2019-03-06T12:38:08.532Z,26.46
2019-03-06T12:39:11.370Z,25.25
2019-03-06T12:40:19.198Z,26.58
2019-03-06T12:41:21.493Z,29.60
2019-03-06T12:42:23.623Z,32.50
2019-03-06T12:43:25.812Z,32.72
2019-03-06T12:44:28.158Z,31.57
2019-03-06T12:45:30.626Z,28.23
2019-03-06T12:46:32.846Z,27.00
2019-03-06T12:47:34.836Z,26.13
2019-03-06T12:48:36.906Z,25.16
2019-03-06T12:49:38.902Z,24.89
2019-03-06T12:50:41.150Z,24.97
2019-03-06T12:51:43.518Z,24.28
2019-03-06T12:52:45.825Z,24.84
2019-03-06T12:53:47.799Z,25.30
2019-03-06T12:54:49.886Z,28.79
2019-03-06T12:55:52.014Z,30.23
2019-03-06T12:56:54.189Z,32.29
2019-03-06T12:57:59.453Z,32.43
2019-03-06T12:59:01.396Z,32.44
2019-03-06T13:00:09.690Z,32.51
2019-03-06T13:01:11.704Z,32.90
2019-03-06T13:02:14.038Z,33.56
2019-03-06T13:03:16.016Z,33.33
2019-03-06T13:04:18.175Z,33.01
2019-03-06T13:05:22.721Z,32.80
2019-03-06T13:06:25.339Z,32.34
2019-03-06T13:07:27.680Z,32.44
2019-03-06T13:08:30.242Z,31.80
2019-03-06T13:09:32.875Z,32.35
2019-03-06T13:10:35.196Z,32.41
2019-03-06T13:11:37.151Z,32.37
2019-03-06T13:12:40.605Z,32.31
2019-03-06T13:13:43.030Z,32.20
2019-03-06T13:14:45.575Z,32.12
2019-03-06T13:15:47.586Z,32.05
2019-03-06T13:16:49.847Z,32.00
2019-03-06T13:17:53.154Z,31.96
2019-03-06T13:18:55.189Z,31.87
2019-03-06T13:19:57.325Z,31.79
2019-03-06T13:21:00.751Z,31.60
2019-03-06T13:22:11.078Z,31.09
2019-03-06T13:23:08.095Z,26.88
2019-03-06T13:24:10.699Z,30.31
2019-03-06T13:25:16.777Z,31.49
2019-03-06T13:26:19.238Z,31.53
2019-03-06T13:27:21.364Z,31.49
2019-03-06T13:28:23.299Z,31.34
2019-03-06T13:29:25.961Z,31.56
2019-03-06T13:30:28.027Z,31.22
2019-03-06T13:31:30.381Z,31.29
2019-03-06T13:32:34.433Z,31.36
2019-03-06T13:33:50.289Z,31.55
2019-03-06T13:34:52.769Z,31.51
2019-03-06T13:35:55.202Z,31.42
2019-03-06T13:36:57.298Z,31.02
2019-03-06T13:38:00.454Z,31.22
2019-03-06T13:39:06.505Z,31.26
2019-03-06T13:40:18.219Z,31.22
2019-03-06T13:41:14.805Z,31.30
2019-03-06T13:42:16.972Z,31.16
2019-03-06T13:43:19.176Z,30.76
2019-03-06T13:44:21.060Z,31.18
2019-03-06T13:45:23.318Z,30.14
2019-03-06T13:46:25.509Z,31.16
2019-03-06T13:47:27.399Z,28.69
2019-03-06T13:48:29.882Z,31.01
2019-03-06T13:49:32.069Z,30.92
2019-03-06T13:50:33.927Z,31.16
2019-03-06T13:51:37.674Z,31.16